Terminal Aerodrome Forecast
Issued by NWS

Home | Current Version | Previous Version | Text Only | Print | Product List | Glossary On
Versions: 1 2 3 4 5 6 7 8 9 10 11 12 13 14 15 16 17
785
FTUS43 KLSX 042244 AAC
TAFSUS
TAF AMD
KSUS 042244Z 0423/0518 27008KT P6SM OVC015
     FM050400 VRB04KT 6SM BR SCT020
     FM050900 VRB03KT 3SM BR SCT005
     FM051500 14007KT P6SM SCT250=

USA.gov is the U.S. government's official web portal to all federal, state and local government web resources and services.